Nearby METAR Reports

 

KP69 - Lowell/Elk City, Idaho, USA
Distance from station: ESE 20mi, 33km
Updated: Sun, 24-Oct-2021 12:52am PDT

 Wind from calm
Wind: Calm
Temperature: 46°F , 8°C
Dew Point: 46°F , 8°C
Humidity: 100%
Barometer: 1007.8 hPa
2021/10/24 07:52 KP69 240752Z AUTO 00000KT 08/08 A2976 RMK AO1 SLP080 T00830083 401280078
KGIC - Grangeville, Idaho, USA
Distance from station: SSW 23mi, 36km
Updated: Sun, 24-Oct-2021 1:15am PDT
Mostly cloudy
Mostly cloudy
 Wind from calm
Wind: Calm
Temperature: 36°F , 2°C
Dew Point: 36°F , 2°C
Humidity: 100%
Barometer: 1006.1 hPa
Clouds: Mostly cloudy
Visibility: 1 1/2 miles , 2.4 km
Cloud details: Mostly cloudy 100 ft
2021/10/24 08:15 KGIC 240815Z AUTO 00000KT 1 1/2SM BKN001 02/02 A2971 RMK AO1 VIS 1/2V5
 
KLWS - Lewiston, Idaho, USA
Distance from station: W 49mi, 79km
Updated: Sun, 24-Oct-2021 12:56am PDT
Partly cloudy
Partly cloudy
 Wind from ENE
Wind: ENE 10 mph , 17 km/h
Temperature: 50°F , 10°C
Wind Chill: 46°F , 8°C
Dew Point: 43°F , 6°C
Humidity: 76%
Barometer: 1004.7 hPa
Clouds: Partly cloudy
Visibility: 10 miles , 16 km
Cloud details: Partly cloudy 10000 ft
2021/10/24 07:56 KLWS 240756Z AUTO 07009KT 10SM SCT100 10/06 A2967 RMK AO2 SLP045 T01000061 401670078